Terminal Aerodrome Forecast
Issued by NWS Duluth, MN

Home | Current Version | Previous Version | Text Only | Print | Product List | Glossary On
Versions: 1 2 3 4 5 6 7 8 9 10 11 12 13 14 15 16 17 18 19 20 21 22 23 24 25 26 27 28 29 30 31 32
000
FTUS43 KDLH 270500
TAFDLH
TAF
KDLH 270530Z 2706/2806 VRB03KT 6SM BR OVC090
      TEMPO 2709/2712 2SM BR BKN012
     FM271600 29008G13KT P6SM SCT040
     FM272000 29009G20KT P6SM VCTS SCT080CB
     FM280400 VRB03KT P6SM VCSH SCT080=

USA.gov is the U.S. government's official web portal to all federal, state and local government web resources and services.